createdAt,value
2023-01-04T08:26:16.708Z,1.02
2023-01-04T08:36:49.361Z,1.23
2023-01-04T08:47:10.916Z,1.02
2023-01-04T08:57:34.295Z,1.07
2023-01-04T09:07:55.863Z,1.00
2023-01-04T09:18:33.305Z,0.90
2023-01-04T09:28:56.345Z,0.80
2023-01-04T09:39:23.184Z,0.80
2023-01-04T09:49:51.863Z,0.82
2023-01-04T10:00:22.269Z,1.20
2023-01-04T10:10:55.069Z,1.15
2023-01-04T10:21:36.012Z,1.20
2023-01-04T10:32:16.398Z,0.83
2023-01-04T10:42:44.195Z,0.88
2023-01-04T10:53:25.995Z,0.70
2023-01-04T11:03:49.794Z,0.60
2023-01-04T11:14:12.370Z,0.50
2023-01-04T11:24:35.226Z,0.40
2023-01-04T11:34:59.647Z,0.50
2023-01-04T11:45:27.927Z,0.50
2023-01-04T11:55:49.943Z,0.70
2023-01-04T12:17:10.118Z,0.98
2023-01-04T12:27:31.741Z,0.90
2023-01-04T12:37:53.219Z,0.93
2023-01-04T12:48:48.828Z,0.50
2023-01-04T12:59:25.280Z,0.70
2023-01-04T13:09:58.507Z,0.90
2023-01-04T13:20:25.815Z,1.05
2023-01-04T13:30:47.471Z,1.10
2023-01-04T13:41:27.137Z,1.40
2023-01-04T13:51:48.678Z,1.70
2023-01-04T14:02:21.708Z,1.00
2023-01-04T14:12:46.351Z,1.30
2023-01-04T14:23:25.633Z,1.75
2023-01-04T14:33:50.171Z,1.45
2023-01-04T14:44:24.184Z,1.20
2023-01-04T14:54:45.772Z,1.80
2023-01-04T15:05:07.643Z,2.40
2023-01-04T15:25:50.594Z,2.73
2023-01-04T15:36:18.790Z,2.97
2023-01-04T15:46:45.081Z,3.28
2023-01-04T15:57:06.806Z,2.63
2023-01-04T16:07:34.207Z,2.97
2023-01-04T16:17:57.639Z,3.05
2023-01-04T16:28:19.119Z,3.43
2023-01-04T16:38:43.419Z,3.33
2023-01-04T16:49:11.774Z,3.85
2023-01-04T16:59:33.482Z,2.45
2023-01-04T17:09:55.152Z,2.63
2023-01-04T17:20:16.788Z,2.60
2023-01-04T17:30:39.612Z,2.63
2023-01-04T17:41:19.231Z,2.70
2023-01-04T17:51:41.074Z,2.85
2023-01-04T18:02:02.751Z,2.75
2023-01-04T18:12:24.393Z,2.65
2023-01-04T18:22:45.886Z,3.27
2023-01-04T18:33:07.901Z,2.60
